TimeEDT,TemperatureF,Dew PointF,Humidity,Sea Level PressureIn,VisibilityMPH,Wind Direction,Wind SpeedMPH,Gust SpeedMPH,PrecipitationIn,Events,Conditions,WindDirDegrees,DateUTC
12:52 AM,70.0,63.0,78,29.84,10.0,WNW,5.8,-,N/A,,Clear,290,2013-06-17 04:52:00
1:52 AM,70.0,63.0,78,29.84,10.0,NW,6.9,-,N/A,,Clear,320,2013-06-17 05:52:00
2:52 AM,68.0,63.0,84,29.86,10.0,SW,6.9,-,N/A,,Clear,230,2013-06-17 06:52:00
3:52 AM,68.0,64.0,87,29.86,10.0,Calm,Calm,-,N/A,,Clear,0,2013-06-17 07:52:00
4:52 AM,66.0,62.1,87,29.86,10.0,SW,4.6,-,N/A,,Clear,220,2013-06-17 08:52:00
5:52 AM,66.0,64.0,93,29.88,10.0,Calm,Calm,-,N/A,,Clear,0,2013-06-17 09:52:00
6:52 AM,69.1,64.9,87,29.89,10.0,WSW,3.5,-,N/A,,Clear,250,2013-06-17 10:52:00
7:52 AM,70.0,64.9,84,29.90,10.0,WSW,4.6,-,N/A,,Scattered Clouds,250,2013-06-17 11:52:00
8:52 AM,72.0,64.9,78,29.90,10.0,SW,9.2,-,N/A,,Clear,220,2013-06-17 12:52:00
9:52 AM,73.9,64.9,73,29.89,10.0,SW,8.1,-,N/A,,Clear,230,2013-06-17 13:52:00
10:52 AM,75.0,66.0,73,29.88,10.0,SSW,11.5,-,N/A,,Clear,210,2013-06-17 14:52:00
11:52 AM,78.1,64.9,64,29.87,10.0,SW,11.5,-,N/A,,Clear,220,2013-06-17 15:52:00
12:52 PM,81.0,64.9,58,29.87,10.0,SW,12.7,-,N/A,,Clear,220,2013-06-17 16:52:00
1:52 PM,84.0,62.1,47,29.86,10.0,SW,10.4,-,N/A,,Clear,220,2013-06-17 17:52:00
2:22 PM,80.6,62.6,54,29.86,10.0,WSW,4.6,-,0.00,Rain-Thunderstorm,Light Thunderstorms and Rain,240,2013-06-17 18:22:00
2:52 PM,72.0,64.9,78,29.86,1.8,Calm,Calm,-,0.26,Rain-Thunderstorm,Light Thunderstorms and Rain,0,2013-06-17 18:52:00
3:01 PM,73.4,66.2,78,29.85,6.0,Calm,Calm,-,0.00,Thunderstorm,Unknown,0,2013-06-17 19:01:00
3:32 PM,75.2,64.4,69,29.84,6.0,WSW,4.6,-,0.00,,Haze,240,2013-06-17 19:32:00
3:52 PM,78.1,66.0,66,29.84,6.0,Calm,Calm,-,0.01,,Haze,0,2013-06-17 19:52:00
5:52 PM,75.9,64.9,69,29.84,10.0,SSE,9.2,-,N/A,,Clear,150,2013-06-17 21:52:00
6:52 PM,79.0,66.9,66,29.85,10.0,Variable,3.5,-,N/A,,Clear,0,2013-06-17 22:52:00
7:15 PM,73.4,59.0,61,29.87,10.0,North,9.2,-,N/A,,Mostly Cloudy,10,2013-06-17 23:15:00
7:52 PM,72.0,61.0,68,29.88,10.0,East,4.6,-,N/A,,Scattered Clouds,90,2013-06-17 23:52:00
8:52 PM,69.1,62.1,78,29.88,10.0,East,4.6,-,N/A,,Clear,90,2013-06-18 00:52:00
9:52 PM,68.0,63.0,84,29.93,10.0,South,4.6,-,0.00,Rain-Thunderstorm,Light Rain,170,2013-06-18 01:52:00
10:25 PM,68.0,64.4,88,29.92,10.0,ENE,3.5,-,0.01,,Scattered Clouds,60,2013-06-18 02:25:00
10:52 PM,66.9,64.0,90,29.92,10.0,East,4.6,-,0.01,,Clear,100,2013-06-18 02:52:00
11:52 PM,66.0,63.0,90,29.91,10.0,NNE,3.5,-,N/A,,Clear,30,2013-06-18 03:52:00